sensor_id;sensor_type;location;lat;lon;timestamp;temperature;humidity
76751;SHT31;65216;51.090;-115.352;2023-02-25T00:01:48;21.88;20.19
76751;SHT31;65216;51.090;-115.352;2023-02-25T00:04:15;21.86;20.02
76751;SHT31;65216;51.090;-115.352;2023-02-25T00:06:43;21.84;19.88
76751;SHT31;65216;51.090;-115.352;2023-02-25T00:09:13;21.81;19.87
76751;SHT31;65216;51.090;-115.352;2023-02-25T00:11:43;21.78;19.90
76751;SHT31;65216;51.090;-115.352;2023-02-25T00:14:10;21.77;19.98
76751;SHT31;65216;51.090;-115.352;2023-02-25T00:16:40;21.75;19.99
76751;SHT31;65216;51.090;-115.352;2023-02-25T00:19:11;21.72;19.96
76751;SHT31;65216;51.090;-115.352;2023-02-25T00:21:38;21.71;20.06
76751;SHT31;65216;51.090;-115.352;2023-02-25T00:24:05;21.68;20.12
76751;SHT31;65216;51.090;-115.352;2023-02-25T00:26:33;21.65;20.24
76751;SHT31;65216;51.090;-115.352;2023-02-25T00:29:00;21.63;20.36
76751;SHT31;65216;51.090;-115.352;2023-02-25T00:31:30;21.61;20.33
76751;SHT31;65216;51.090;-115.352;2023-02-25T00:33:58;21.56;20.42
76751;SHT31;65216;51.090;-115.352;2023-02-25T00:36:25;21.54;20.45
76751;SHT31;65216;51.090;-115.352;2023-02-25T00:38:53;21.50;20.51
76751;SHT31;65216;51.090;-115.352;2023-02-25T00:41:26;21.45;20.44
76751;SHT31;65216;51.090;-115.352;2023-02-25T00:43:58;21.41;20.52
76751;SHT31;65216;51.090;-115.352;2023-02-25T00:46:28;21.37;20.48
76751;SHT31;65216;51.090;-115.352;2023-02-25T00:48:59;21.34;20.50
76751;SHT31;65216;51.090;-115.352;2023-02-25T00:51:28;21.32;20.50
76751;SHT31;65216;51.090;-115.352;2023-02-25T00:54:00;21.29;20.54
76751;SHT31;65216;51.090;-115.352;2023-02-25T00:56:27;21.27;20.56
76751;SHT31;65216;51.090;-115.352;2023-02-25T00:58:55;21.24;20.53
76751;SHT31;65216;51.090;-115.352;2023-02-25T01:01:28;21.22;20.49
76751;SHT31;65216;51.090;-115.352;2023-02-25T01:04:02;21.19;20.49
76751;SHT31;65216;51.090;-115.352;2023-02-25T01:06:31;21.16;20.45
76751;SHT31;65216;51.090;-115.352;2023-02-25T01:08:59;21.14;20.44
76751;SHT31;65216;51.090;-115.352;2023-02-25T01:11:28;21.11;20.43
76751;SHT31;65216;51.090;-115.352;2023-02-25T01:14:07;21.09;20.37
76751;SHT31;65216;51.090;-115.352;2023-02-25T01:16:43;21.05;20.47
76751;SHT31;65216;51.090;-115.352;2023-02-25T01:19:13;21.01;20.78
76751;SHT31;65216;51.090;-115.352;2023-02-25T01:21:49;20.98;20.59
76751;SHT31;65216;51.090;-115.352;2023-02-25T01:24:30;20.96;20.60
76751;SHT31;65216;51.090;-115.352;2023-02-25T01:27:00;20.93;20.61
76751;SHT31;65216;51.090;-115.352;2023-02-25T01:29:30;20.91;20.64
76751;SHT31;65216;51.090;-115.352;2023-02-25T01:32:04;20.89;20.71
76751;SHT31;65216;51.090;-115.352;2023-02-25T01:34:35;20.86;20.63
76751;SHT31;65216;51.090;-115.352;2023-02-25T01:37:04;20.85;20.60
76751;SHT31;65216;51.090;-115.352;2023-02-25T01:39:32;20.82;20.59
76751;SHT31;65216;51.090;-115.352;2023-02-25T01:42:02;20.80;20.59
76751;SHT31;65216;51.090;-115.352;2023-02-25T01:47:45;20.75;20.60
76751;SHT31;65216;51.090;-115.352;2023-02-25T01:50:25;20.72;20.58
76751;SHT31;65216;51.090;-115.352;2023-02-25T01:53:36;20.69;20.60
76751;SHT31;65216;51.090;-115.352;2023-02-25T01:56:09;20.68;20.62
76751;SHT31;65216;51.090;-115.352;2023-02-25T01:58:42;20.68;20.60
76751;SHT31;65216;51.090;-115.352;2023-02-25T02:01:18;20.65;20.51
76751;SHT31;65216;51.090;-115.352;2023-02-25T02:03:50;20.63;20.50
76751;SHT31;65216;51.090;-115.352;2023-02-25T02:06:37;20.60;20.51
76751;SHT31;65216;51.090;-115.352;2023-02-25T02:09:09;20.58;20.58
76751;SHT31;65216;51.090;-115.352;2023-02-25T02:11:50;20.56;20.60
76751;SHT31;65216;51.090;-115.352;2023-02-25T02:14:24;20.55;20.62
76751;SHT31;65216;51.090;-115.352;2023-02-25T02:19:58;20.54;20.61
76751;SHT31;65216;51.090;-115.352;2023-02-25T02:29:02;20.50;20.74
76751;SHT31;65216;51.090;-115.352;2023-02-25T02:37:28;20.48;20.83
76751;SHT31;65216;51.090;-115.352;2023-02-25T02:40:18;20.46;20.80
76751;SHT31;65216;51.090;-115.352;2023-02-25T02:43:03;20.45;20.76
76751;SHT31;65216;51.090;-115.352;2023-02-25T02:45:48;20.44;20.80
76751;SHT31;65216;51.090;-115.352;2023-02-25T02:48:17;20.43;20.81
76751;SHT31;65216;51.090;-115.352;2023-02-25T02:51:02;20.43;20.80
76751;SHT31;65216;51.090;-115.352;2023-02-25T02:54:03;20.42;20.81
76751;SHT31;65216;51.090;-115.352;2023-02-25T02:56:34;20.42;20.77
76751;SHT31;65216;51.090;-115.352;2023-02-25T02:59:06;20.40;20.86
76751;SHT31;65216;51.090;-115.352;2023-02-25T03:01:50;20.39;20.95
76751;SHT31;65216;51.090;-115.352;2023-02-25T03:04:32;20.37;21.09
76751;SHT31;65216;51.090;-115.352;2023-02-25T03:07:04;20.37;21.10
76751;SHT31;65216;51.090;-115.352;2023-02-25T03:09:47;20.35;21.10
76751;SHT31;65216;51.090;-115.352;2023-02-25T03:12:22;20.35;21.12
76751;SHT31;65216;51.090;-115.352;2023-02-25T03:14:50;20.34;21.17
76751;SHT31;65216;51.090;-115.352;2023-02-25T03:17:25;20.33;21.18
76751;SHT31;65216;51.090;-115.352;2023-02-25T03:20:24;20.34;21.23
76751;SHT31;65216;51.090;-115.352;2023-02-25T03:23:04;20.34;21.27
76751;SHT31;65216;51.090;-115.352;2023-02-25T03:25:47;20.35;21.19
76751;SHT31;65216;51.090;-115.352;2023-02-25T03:36:57;20.33;21.17
76751;SHT31;65216;51.090;-115.352;2023-02-25T03:39:35;20.32;21.19
76751;SHT31;65216;51.090;-115.352;2023-02-25T03:42:09;20.32;21.19
76751;SHT31;65216;51.090;-115.352;2023-02-25T03:44:49;20.30;21.11
76751;SHT31;65216;51.090;-115.352;2023-02-25T03:47:21;20.30;21.14
76751;SHT31;65216;51.090;-115.352;2023-02-25T03:49:55;20.29;21.15
76751;SHT31;65216;51.090;-115.352;2023-02-25T03:52:29;20.30;21.08
76751;SHT31;65216;51.090;-115.352;2023-02-25T03:54:57;20.28;20.99
76751;SHT31;65216;51.090;-115.352;2023-02-25T03:57:37;20.26;21.01
76751;SHT31;65216;51.090;-115.352;2023-02-25T04:00:17;20.24;21.00
76751;SHT31;65216;51.090;-115.352;2023-02-25T04:02:52;20.23;21.07
76751;SHT31;65216;51.090;-115.352;2023-02-25T04:05:20;20.23;20.97
76751;SHT31;65216;51.090;-115.352;2023-02-25T04:07:58;20.22;21.06
76751;SHT31;65216;51.090;-115.352;2023-02-25T04:10:31;20.20;21.08
76751;SHT31;65216;51.090;-115.352;2023-02-25T04:13:01;20.18;21.12
76751;SHT31;65216;51.090;-115.352;2023-02-25T04:15:30;20.18;21.36
76751;SHT31;65216;51.090;-115.352;2023-02-25T04:18:00;20.18;21.61
76751;SHT31;65216;51.090;-115.352;2023-02-25T04:20:28;20.17;21.62
76751;SHT31;65216;51.090;-115.352;2023-02-25T04:22:59;20.16;21.65
76751;SHT31;65216;51.090;-115.352;2023-02-25T04:25:27;20.16;21.66
76751;SHT31;65216;51.090;-115.352;2023-02-25T04:27:57;20.17;21.65
76751;SHT31;65216;51.090;-115.352;2023-02-25T04:30:25;20.16;21.58
76751;SHT31;65216;51.090;-115.352;2023-02-25T04:32:52;20.16;21.42
76751;SHT31;65216;51.090;-115.352;2023-02-25T04:35:20;20.14;21.28
76751;SHT31;65216;51.090;-115.352;2023-02-25T04:37:49;20.13;21.18
76751;SHT31;65216;51.090;-115.352;2023-02-25T04:40:18;20.11;21.07
76751;SHT31;65216;51.090;-115.352;2023-02-25T04:42:52;20.10;20.95
76751;SHT31;65216;51.090;-115.352;2023-02-25T04:45:22;20.09;20.80
76751;SHT31;65216;51.090;-115.352;2023-02-25T04:47:55;20.08;20.73
76751;SHT31;65216;51.090;-115.352;2023-02-25T04:50:23;20.07;20.60
76751;SHT31;65216;51.090;-115.352;2023-02-25T04:52:51;20.05;20.43
76751;SHT31;65216;51.090;-115.352;2023-02-25T04:55:18;20.05;20.32
76751;SHT31;65216;51.090;-115.352;2023-02-25T04:57:45;20.04;20.13
76751;SHT31;65216;51.090;-115.352;2023-02-25T05:00:17;20.02;20.02
76751;SHT31;65216;51.090;-115.352;2023-02-25T05:02:51;20.02;19.86
76751;SHT31;65216;51.090;-115.352;2023-02-25T05:05:18;20.01;19.70
76751;SHT31;65216;51.090;-115.352;2023-02-25T05:07:46;19.99;19.52
76751;SHT31;65216;51.090;-115.352;2023-02-25T05:10:16;19.98;19.36
76751;SHT31;65216;51.090;-115.352;2023-02-25T05:12:44;19.96;19.26
76751;SHT31;65216;51.090;-115.352;2023-02-25T05:15:11;19.95;19.16
76751;SHT31;65216;51.090;-115.352;2023-02-25T05:17:39;19.95;18.97
76751;SHT31;65216;51.090;-115.352;2023-02-25T05:20:06;19.94;18.88
76751;SHT31;65216;51.090;-115.352;2023-02-25T05:22:37;19.93;18.74
76751;SHT31;65216;51.090;-115.352;2023-02-25T05:25:06;19.91;18.63
76751;SHT31;65216;51.090;-115.352;2023-02-25T05:27:34;19.91;18.50
76751;SHT31;65216;51.090;-115.352;2023-02-25T05:30:02;19.88;18.38
76751;SHT31;65216;51.090;-115.352;2023-02-25T05:32:30;19.88;18.29
76751;SHT31;65216;51.090;-115.352;2023-02-25T05:34:57;19.87;18.23
76751;SHT31;65216;51.090;-115.352;2023-02-25T05:37:25;19.87;18.14
76751;SHT31;65216;51.090;-115.352;2023-02-25T05:39:56;19.85;18.02
76751;SHT31;65216;51.090;-115.352;2023-02-25T05:42:24;19.85;17.95
76751;SHT31;65216;51.090;-115.352;2023-02-25T05:44:54;19.84;17.84
76751;SHT31;65216;51.090;-115.352;2023-02-25T05:47:22;19.81;17.76
76751;SHT31;65216;51.090;-115.352;2023-02-25T05:49:49;19.80;17.71
76751;SHT31;65216;51.090;-115.352;2023-02-25T05:52:16;19.77;17.61
76751;SHT31;65216;51.090;-115.352;2023-02-25T05:54:44;19.76;17.56
76751;SHT31;65216;51.090;-115.352;2023-02-25T05:57:12;19.76;17.50
76751;SHT31;65216;51.090;-115.352;2023-02-25T05:59:40;19.75;17.40
76751;SHT31;65216;51.090;-115.352;2023-02-25T06:02:07;19.74;17.36
76751;SHT31;65216;51.090;-115.352;2023-02-25T06:04:35;19.74;17.29
76751;SHT31;65216;51.090;-115.352;2023-02-25T06:07:02;19.74;17.23
76751;SHT31;65216;51.090;-115.352;2023-02-25T06:09:31;19.74;17.17
76751;SHT31;65216;51.090;-115.352;2023-02-25T06:12:01;19.74;17.07
76751;SHT31;65216;51.090;-115.352;2023-02-25T06:14:29;19.72;17.02
76751;SHT31;65216;51.090;-115.352;2023-02-25T06:16:56;19.72;16.96
76751;SHT31;65216;51.090;-115.352;2023-02-25T06:19:24;19.70;16.84
76751;SHT31;65216;51.090;-115.352;2023-02-25T06:21:52;19.69;16.83
76751;SHT31;65216;51.090;-115.352;2023-02-25T06:24:21;19.68;16.74
76751;SHT31;65216;51.090;-115.352;2023-02-25T06:26:51;19.66;16.72
76751;SHT31;65216;51.090;-115.352;2023-02-25T06:29:18;19.66;16.71
76751;SHT31;65216;51.090;-115.352;2023-02-25T06:31:48;19.64;16.64
76751;SHT31;65216;51.090;-115.352;2023-02-25T06:34:16;19.65;16.60
76751;SHT31;65216;51.090;-115.352;2023-02-25T06:36:46;19.63;16.52
76751;SHT31;65216;51.090;-115.352;2023-02-25T06:39:21;19.62;16.51
76751;SHT31;65216;51.090;-115.352;2023-02-25T06:41:51;19.61;16.50
76751;SHT31;65216;51.090;-115.352;2023-02-25T06:44:19;19.61;16.41
76751;SHT31;65216;51.090;-115.352;2023-02-25T06:46:49;19.59;16.38
76751;SHT31;65216;51.090;-115.352;2023-02-25T06:49:22;19.59;16.39
76751;SHT31;65216;51.090;-115.352;2023-02-25T06:51:50;19.59;16.33
76751;SHT31;65216;51.090;-115.352;2023-02-25T06:54:17;19.56;16.29
76751;SHT31;65216;51.090;-115.352;2023-02-25T06:56:45;19.56;16.23
76751;SHT31;65216;51.090;-115.352;2023-02-25T06:59:14;19.55;16.28
76751;SHT31;65216;51.090;-115.352;2023-02-25T07:01:42;19.55;16.21
76751;SHT31;65216;51.090;-115.352;2023-02-25T07:04:13;19.53;16.20
76751;SHT31;65216;51.090;-115.352;2023-02-25T07:06:43;19.53;16.20
76751;SHT31;65216;51.090;-115.352;2023-02-25T07:09:13;19.53;16.17
76751;SHT31;65216;51.090;-115.352;2023-02-25T07:11:40;19.50;16.13
76751;SHT31;65216;51.090;-115.352;2023-02-25T07:14:08;19.49;16.12
76751;SHT31;65216;51.090;-115.352;2023-02-25T07:16:38;19.50;16.15
76751;SHT31;65216;51.090;-115.352;2023-02-25T07:19:06;19.49;16.10
76751;SHT31;65216;51.090;-115.352;2023-02-25T07:21:33;19.48;16.11
76751;SHT31;65216;51.090;-115.352;2023-02-25T07:24:02;19.47;16.11
76751;SHT31;65216;51.090;-115.352;2023-02-25T07:26:30;19.47;16.10
76751;SHT31;65216;51.090;-115.352;2023-02-25T07:28:58;19.46;16.12
76751;SHT31;65216;51.090;-115.352;2023-02-25T07:31:26;19.46;16.10
76751;SHT31;65216;51.090;-115.352;2023-02-25T07:33:54;19.46;16.11
76751;SHT31;65216;51.090;-115.352;2023-02-25T07:36:26;19.46;16.09
76751;SHT31;65216;51.090;-115.352;2023-02-25T07:38:58;19.45;16.04
76751;SHT31;65216;51.090;-115.352;2023-02-25T07:41:26;19.44;16.05
76751;SHT31;65216;51.090;-115.352;2023-02-25T07:43:54;19.43;16.03
76751;SHT31;65216;51.090;-115.352;2023-02-25T07:46:22;19.42;16.01
76751;SHT31;65216;51.090;-115.352;2023-02-25T07:48:50;19.41;16.00
76751;SHT31;65216;51.090;-115.352;2023-02-25T07:51:19;19.41;15.97
76751;SHT31;65216;51.090;-115.352;2023-02-25T07:53:48;19.39;15.97
76751;SHT31;65216;51.090;-115.352;2023-02-25T07:56:18;19.38;16.03
76751;SHT31;65216;51.090;-115.352;2023-02-25T07:58:47;19.37;16.12
76751;SHT31;65216;51.090;-115.352;2023-02-25T08:03:54;19.36;16.50
76751;SHT31;65216;51.090;-115.352;2023-02-25T08:06:24;19.35;16.59
76751;SHT31;65216;51.090;-115.352;2023-02-25T08:08:53;19.35;16.71
76751;SHT31;65216;51.090;-115.352;2023-02-25T08:11:20;19.35;16.75
76751;SHT31;65216;51.090;-115.352;2023-02-25T08:13:52;19.35;16.69
76751;SHT31;65216;51.090;-115.352;2023-02-25T08:16:20;19.34;16.73
76751;SHT31;65216;51.090;-115.352;2023-02-25T08:18:47;19.33;16.73
76751;SHT31;65216;51.090;-115.352;2023-02-25T08:21:17;19.32;16.62
76751;SHT31;65216;51.090;-115.352;2023-02-25T08:23:47;19.32;16.58
76751;SHT31;65216;51.090;-115.352;2023-02-25T08:26:21;19.32;16.64
76751;SHT31;65216;51.090;-115.352;2023-02-25T08:28:52;19.31;16.73
76751;SHT31;65216;51.090;-115.352;2023-02-25T08:31:21;19.31;16.78
76751;SHT31;65216;51.090;-115.352;2023-02-25T08:33:49;19.31;16.98
76751;SHT31;65216;51.090;-115.352;2023-02-25T08:36:25;19.32;17.03
76751;SHT31;65216;51.090;-115.352;2023-02-25T08:38:55;19.31;17.16
76751;SHT31;65216;51.090;-115.352;2023-02-25T08:41:27;19.31;17.28
76751;SHT31;65216;51.090;-115.352;2023-02-25T08:43:55;19.31;17.21
76751;SHT31;65216;51.090;-115.352;2023-02-25T08:46:26;19.31;17.22
76751;SHT31;65216;51.090;-115.352;2023-02-25T08:48:55;19.31;17.22
76751;SHT31;65216;51.090;-115.352;2023-02-25T08:51:26;19.30;17.20
76751;SHT31;65216;51.090;-115.352;2023-02-25T08:54:03;19.28;17.22
76751;SHT31;65216;51.090;-115.352;2023-02-25T08:56:39;19.27;17.11
76751;SHT31;65216;51.090;-115.352;2023-02-25T08:59:11;19.27;17.01
76751;SHT31;65216;51.090;-115.352;2023-02-25T09:01:40;19.28;16.87
76751;SHT31;65216;51.090;-115.352;2023-02-25T09:04:17;19.26;16.83
76751;SHT31;65216;51.090;-115.352;2023-02-25T09:06:49;19.25;16.76
76751;SHT31;65216;51.090;-115.352;2023-02-25T09:09:18;19.25;16.72
76751;SHT31;65216;51.090;-115.352;2023-02-25T09:11:47;19.26;16.63
76751;SHT31;65216;51.090;-115.352;2023-02-25T09:14:15;19.27;16.55
76751;SHT31;65216;51.090;-115.352;2023-02-25T09:16:43;19.27;16.49
76751;SHT31;65216;51.090;-115.352;2023-02-25T09:19:11;19.26;16.43
76751;SHT31;65216;51.090;-115.352;2023-02-25T09:21:46;19.26;16.38
76751;SHT31;65216;51.090;-115.352;2023-02-25T09:24:13;19.25;16.31
76751;SHT31;65216;51.090;-115.352;2023-02-25T09:26:42;19.26;16.27
76751;SHT31;65216;51.090;-115.352;2023-02-25T09:29:09;19.25;16.23
76751;SHT31;65216;51.090;-115.352;2023-02-25T09:31:37;19.25;16.17
76751;SHT31;65216;51.090;-115.352;2023-02-25T09:34:05;19.24;16.11
76751;SHT31;65216;51.090;-115.352;2023-02-25T09:36:38;19.23;16.08
76751;SHT31;65216;51.090;-115.352;2023-02-25T09:39:09;19.23;16.04
76751;SHT31;65216;51.090;-115.352;2023-02-25T09:46:56;19.21;15.90
76751;SHT31;65216;51.090;-115.352;2023-02-25T09:49:39;19.20;15.90
76751;SHT31;65216;51.090;-115.352;2023-02-25T09:52:30;19.19;15.90
76751;SHT31;65216;51.090;-115.352;2023-02-25T09:55:10;19.19;15.85
76751;SHT31;65216;51.090;-115.352;2023-02-25T10:00:42;19.17;15.80
76751;SHT31;65216;51.090;-115.352;2023-02-25T10:06:25;19.17;15.71
76751;SHT31;65216;51.090;-115.352;2023-02-25T10:12:22;19.16;15.73
76751;SHT31;65216;51.090;-115.352;2023-02-25T10:15:01;19.15;15.71
76751;SHT31;65216;51.090;-115.352;2023-02-25T10:18:00;19.16;15.71
76751;SHT31;65216;51.090;-115.352;2023-02-25T10:20:42;19.14;15.69
76751;SHT31;65216;51.090;-115.352;2023-02-25T10:26:05;19.12;15.67
76751;SHT31;65216;51.090;-115.352;2023-02-25T10:28:45;19.13;15.65
76751;SHT31;65216;51.090;-115.352;2023-02-25T10:31:22;19.12;15.61
76751;SHT31;65216;51.090;-115.352;2023-02-25T10:33:52;19.12;15.62
76751;SHT31;65216;51.090;-115.352;2023-02-25T10:36:26;19.13;15.59
76751;SHT31;65216;51.090;-115.352;2023-02-25T10:38:59;19.12;15.55
76751;SHT31;65216;51.090;-115.352;2023-02-25T10:41:27;19.11;15.55
76751;SHT31;65216;51.090;-115.352;2023-02-25T10:43:57;19.11;15.52
76751;SHT31;65216;51.090;-115.352;2023-02-25T10:46:26;19.12;15.52
76751;SHT31;65216;51.090;-115.352;2023-02-25T10:49:16;19.12;15.50
76751;SHT31;65216;51.090;-115.352;2023-02-25T10:52:05;19.11;15.50
76751;SHT31;65216;51.090;-115.352;2023-02-25T10:54:48;19.12;15.48
76751;SHT31;65216;51.090;-115.352;2023-02-25T10:57:27;19.12;15.45
76751;SHT31;65216;51.090;-115.352;2023-02-25T11:00:20;19.12;15.42
76751;SHT31;65216;51.090;-115.352;2023-02-25T11:02:58;19.10;15.45
76751;SHT31;65216;51.090;-115.352;2023-02-25T11:05:37;19.09;15.40
76751;SHT31;65216;51.090;-115.352;2023-02-25T11:08:28;19.08;15.40
76751;SHT31;65216;51.090;-115.352;2023-02-25T11:11:15;19.08;15.40
76751;SHT31;65216;51.090;-115.352;2023-02-25T11:16:28;19.08;15.39
76751;SHT31;65216;51.090;-115.352;2023-02-25T11:19:00;19.08;15.39
76751;SHT31;65216;51.090;-115.352;2023-02-25T11:21:48;19.07;15.36
76751;SHT31;65216;51.090;-115.352;2023-02-25T11:27:01;19.09;15.31
76751;SHT31;65216;51.090;-115.352;2023-02-25T11:29:38;19.10;15.33
76751;SHT31;65216;51.090;-115.352;2023-02-25T11:32:18;19.10;15.32
76751;SHT31;65216;51.090;-115.352;2023-02-25T11:34:50;19.10;15.31
76751;SHT31;65216;51.090;-115.352;2023-02-25T11:43:14;19.06;15.34
76751;SHT31;65216;51.090;-115.352;2023-02-25T11:45:56;19.04;15.33
76751;SHT31;65216;51.090;-115.352;2023-02-25T11:51:29;19.00;15.36
76751;SHT31;65216;51.090;-115.352;2023-02-25T11:54:33;18.95;15.33
76751;SHT31;65216;51.090;-115.352;2023-02-25T11:57:13;18.94;15.39
76751;SHT31;65216;51.090;-115.352;2023-02-25T12:00:19;18.93;15.38
76751;SHT31;65216;51.090;-115.352;2023-02-25T12:08:51;18.88;15.34
76751;SHT31;65216;51.090;-115.352;2023-02-25T12:14:58;18.83;15.34
76751;SHT31;65216;51.090;-115.352;2023-02-25T12:36:10;18.75;15.37
76751;SHT31;65216;51.090;-115.352;2023-02-25T12:39:12;18.74;15.37
76751;SHT31;65216;51.090;-115.352;2023-02-25T12:47:53;18.70;15.36
76751;SHT31;65216;51.090;-115.352;2023-02-25T12:59:54;18.65;15.39
76751;SHT31;65216;51.090;-115.352;2023-02-25T13:24:24;18.56;15.34
76751;SHT31;65216;51.090;-115.352;2023-02-25T13:27:13;18.55;15.31
76751;SHT31;65216;51.090;-115.352;2023-02-25T13:50:44;18.47;15.33
76751;SHT31;65216;51.090;-115.352;2023-02-25T13:56:25;18.46;15.32
76751;SHT31;65216;51.090;-115.352;2023-02-25T14:08:08;18.46;15.33
76751;SHT31;65216;51.090;-115.352;2023-02-25T14:13:56;18.45;15.31
76751;SHT31;65216;51.090;-115.352;2023-02-25T14:25:56;18.49;15.30
76751;SHT31;65216;51.090;-115.352;2023-02-25T14:32:34;18.49;15.28
76751;SHT31;65216;51.090;-115.352;2023-02-25T14:38:25;18.49;15.28
76751;SHT31;65216;51.090;-115.352;2023-02-25T14:41:34;18.49;15.25
76751;SHT31;65216;51.090;-115.352;2023-02-25T14:48:03;18.50;15.22
76751;SHT31;65216;51.090;-115.352;2023-02-25T14:57:05;18.50;15.20
76751;SHT31;65216;51.090;-115.352;2023-02-25T14:59:59;18.49;15.20
76751;SHT31;65216;51.090;-115.352;2023-02-25T15:18:59;18.48;15.27
76751;SHT31;65216;51.090;-115.352;2023-02-25T15:22:10;18.48;15.28
76751;SHT31;65216;51.090;-115.352;2023-02-25T15:24:43;18.49;15.28
76751;SHT31;65216;51.090;-115.352;2023-02-25T15:30:17;18.50;15.28
76751;SHT31;65216;51.090;-115.352;2023-02-25T15:35:50;18.49;15.31
76751;SHT31;65216;51.090;-115.352;2023-02-25T15:38:44;18.49;15.29
76751;SHT31;65216;51.090;-115.352;2023-02-25T15:51:45;18.52;15.31
76751;SHT31;65216;51.090;-115.352;2023-02-25T15:59:52;18.56;15.38
76751;SHT31;65216;51.090;-115.352;2023-02-25T16:08:06;18.59;15.46
76751;SHT31;65216;51.090;-115.352;2023-02-25T16:14:05;18.62;15.56
76751;SHT31;65216;51.090;-115.352;2023-02-25T16:16:43;18.63;15.65
76751;SHT31;65216;51.090;-115.352;2023-02-25T16:19:30;18.65;15.70
76751;SHT31;65216;51.090;-115.352;2023-02-25T16:22:13;18.67;15.76
76751;SHT31;65216;51.090;-115.352;2023-02-25T16:24:51;18.71;15.88
76751;SHT31;65216;51.090;-115.352;2023-02-25T16:39:43;18.85;16.17
76751;SHT31;65216;51.090;-115.352;2023-02-25T16:42:13;18.89;16.22
76751;SHT31;65216;51.090;-115.352;2023-02-25T16:44:46;18.90;16.29
76751;SHT31;65216;51.090;-115.352;2023-02-25T16:47:30;18.91;16.40
76751;SHT31;65216;51.090;-115.352;2023-02-25T16:50:03;18.94;16.35
76751;SHT31;65216;51.090;-115.352;2023-02-25T16:52:44;18.97;16.44
76751;SHT31;65216;51.090;-115.352;2023-02-25T16:55:19;19.00;16.56
76751;SHT31;65216;51.090;-115.352;2023-02-25T16:58:17;19.01;16.65
76751;SHT31;65216;51.090;-115.352;2023-02-25T17:00:55;19.04;16.62
76751;SHT31;65216;51.090;-115.352;2023-02-25T17:03:27;19.06;16.72
76751;SHT31;65216;51.090;-115.352;2023-02-25T17:06:06;19.09;16.73
76751;SHT31;65216;51.090;-115.352;2023-02-25T17:08:49;19.11;16.92
76751;SHT31;65216;51.090;-115.352;2023-02-25T17:11:20;19.14;17.16
76751;SHT31;65216;51.090;-115.352;2023-02-25T17:13:50;19.17;17.28
76751;SHT31;65216;51.090;-115.352;2023-02-25T17:19:06;19.21;17.29
76751;SHT31;65216;51.090;-115.352;2023-02-25T17:21:40;19.22;17.34
76751;SHT31;65216;51.090;-115.352;2023-02-25T17:24:11;19.23;17.50
76751;SHT31;65216;51.090;-115.352;2023-02-25T17:26:44;19.25;17.68
76751;SHT31;65216;51.090;-115.352;2023-02-25T17:29:15;19.26;17.92
76751;SHT31;65216;51.090;-115.352;2023-02-25T17:31:45;19.29;18.02
76751;SHT31;65216;51.090;-115.352;2023-02-25T17:34:18;19.32;18.18
76751;SHT31;65216;51.090;-115.352;2023-02-25T17:36:55;19.34;18.31
76751;SHT31;65216;51.090;-115.352;2023-02-25T17:39:31;19.39;18.37
76751;SHT31;65216;51.090;-115.352;2023-02-25T17:41:59;19.41;18.48
76751;SHT31;65216;51.090;-115.352;2023-02-25T17:47:04;19.45;18.62
76751;SHT31;65216;51.090;-115.352;2023-02-25T17:49:36;19.47;18.69
76751;SHT31;65216;51.090;-115.352;2023-02-25T17:52:05;19.49;18.71
76751;SHT31;65216;51.090;-115.352;2023-02-25T17:54:48;19.52;18.79
76751;SHT31;65216;51.090;-115.352;2023-02-25T17:57:27;19.55;18.78
76751;SHT31;65216;51.090;-115.352;2023-02-25T17:59:58;19.57;18.76
76751;SHT31;65216;51.090;-115.352;2023-02-25T18:02:39;19.59;18.76
76751;SHT31;65216;51.090;-115.352;2023-02-25T18:07:38;19.65;18.92
76751;SHT31;65216;51.090;-115.352;2023-02-25T18:12:59;19.71;19.03
76751;SHT31;65216;51.090;-115.352;2023-02-25T18:15:41;19.74;19.08
76751;SHT31;65216;51.090;-115.352;2023-02-25T18:18:13;19.76;19.11
76751;SHT31;65216;51.090;-115.352;2023-02-25T18:20:46;19.79;19.15
76751;SHT31;65216;51.090;-115.352;2023-02-25T18:23:23;19.81;19.17
76751;SHT31;65216;51.090;-115.352;2023-02-25T18:28:51;19.87;19.13
76751;SHT31;65216;51.090;-115.352;2023-02-25T18:31:22;19.91;19.16
76751;SHT31;65216;51.090;-115.352;2023-02-25T18:33:58;19.95;19.12
76751;SHT31;65216;51.090;-115.352;2023-02-25T18:36:26;19.98;19.15
76751;SHT31;65216;51.090;-115.352;2023-02-25T18:38:55;20.01;19.22
76751;SHT31;65216;51.090;-115.352;2023-02-25T18:41:27;20.05;19.33
76751;SHT31;65216;51.090;-115.352;2023-02-25T18:43:55;20.09;19.40
76751;SHT31;65216;51.090;-115.352;2023-02-25T18:46:22;20.12;19.47
76751;SHT31;65216;51.090;-115.352;2023-02-25T18:48:50;20.15;19.53
76751;SHT31;65216;51.090;-115.352;2023-02-25T18:51:17;20.17;19.60
76751;SHT31;65216;51.090;-115.352;2023-02-25T18:53:47;20.21;19.64
76751;SHT31;65216;51.090;-115.352;2023-02-25T18:56:15;20.23;19.69
76751;SHT31;65216;51.090;-115.352;2023-02-25T18:58:45;20.26;19.74
76751;SHT31;65216;51.090;-115.352;2023-02-25T19:01:18;20.28;19.71
76751;SHT31;65216;51.090;-115.352;2023-02-25T19:03:53;20.31;19.70
76751;SHT31;65216;51.090;-115.352;2023-02-25T19:06:25;20.33;19.80
76751;SHT31;65216;51.090;-115.352;2023-02-25T19:08:55;20.35;19.81
76751;SHT31;65216;51.090;-115.352;2023-02-25T19:11:29;20.37;19.80
76751;SHT31;65216;51.090;-115.352;2023-02-25T19:14:03;20.39;19.80
76751;SHT31;65216;51.090;-115.352;2023-02-25T19:16:32;20.41;19.80
76751;SHT31;65216;51.090;-115.352;2023-02-25T19:19:00;20.45;19.80
76751;SHT31;65216;51.090;-115.352;2023-02-25T19:21:27;20.46;19.78
76751;SHT31;65216;51.090;-115.352;2023-02-25T19:23:56;20.48;19.83
76751;SHT31;65216;51.090;-115.352;2023-02-25T19:26:23;20.49;19.82
76751;SHT31;65216;51.090;-115.352;2023-02-25T19:28:53;20.52;19.78
76751;SHT31;65216;51.090;-115.352;2023-02-25T19:31:20;20.53;19.77
76751;SHT31;65216;51.090;-115.352;2023-02-25T19:33:51;20.57;19.76
76751;SHT31;65216;51.090;-115.352;2023-02-25T19:36:21;20.59;19.79
76751;SHT31;65216;51.090;-115.352;2023-02-25T19:38:48;20.61;19.93
76751;SHT31;65216;51.090;-115.352;2023-02-25T19:41:16;20.64;20.11
76751;SHT31;65216;51.090;-115.352;2023-02-25T19:43:43;20.65;20.22
76751;SHT31;65216;51.090;-115.352;2023-02-25T19:46:11;20.67;20.42
76751;SHT31;65216;51.090;-115.352;2023-02-25T19:48:41;20.70;20.57